Vekso, Denmark
Current Conditions -  °F | °C
As of 2:50 AM on Thursday 27 Nov 2014 (Local Time) from EKRK Reporting Station
Broken Clouds Broken Clouds  
Wind Chill: 36°   Ceiling: 1700
Heat Index: 39°   Visibility: 6mi
Dew Point: 36°   Wind: 5mph
Humidity: 87%   Direction: 140°SE
Pressure: 30.12"   Gusts: NA
Location:  55.75°N, 12.24°E
Report Text: EKRK 270150Z AUTO 14004KT 9999NDV SCT014/// BKN017///BKN020/// 04/02 Q1020
Loading
Personal Weather Stations






























Interactive Weather Map New forecast layout! Learn more

10-Day Weather Forecast

Advertisements
Track Severe Weather on mobile